createdAt,value
2019-05-03T00:01:56.741Z,61.38
2019-05-03T00:04:26.810Z,61.23
2019-05-03T00:06:56.986Z,61.63
2019-05-03T00:09:27.070Z,60.16
2019-05-03T00:11:57.034Z,59.72
2019-05-03T00:14:27.188Z,60.44
2019-05-03T00:16:57.169Z,61.04
2019-05-03T00:19:27.230Z,62.68
2019-05-03T00:21:57.266Z,61.46
2019-05-03T00:24:27.348Z,61.87
2019-05-03T00:26:57.339Z,61.54
2019-05-03T00:29:27.335Z,60.94
2019-05-03T00:31:57.340Z,60.46
2019-05-03T00:34:46.474Z,61.11
2019-05-03T00:37:18.472Z,63.04
2019-05-03T00:39:58.678Z,62.97
2019-05-03T00:42:28.669Z,62.47
2019-05-03T00:44:58.650Z,61.91
2019-05-03T00:47:28.659Z,63.00
2019-05-03T00:49:58.713Z,62.73
2019-05-03T00:52:28.697Z,62.74
2019-05-03T00:54:58.744Z,63.08
2019-05-03T00:57:32.105Z,63.77
2019-05-03T01:00:02.272Z,63.19
2019-05-03T01:02:34.041Z,63.34
2019-05-03T01:05:05.720Z,63.69
2019-05-03T01:07:35.728Z,63.20
2019-05-03T01:10:09.045Z,63.65
2019-05-03T01:12:39.030Z,65.65
2019-05-03T01:15:21.517Z,64.91
2019-05-03T01:17:57.759Z,64.66
2019-05-03T01:20:27.848Z,65.64
2019-05-03T01:22:57.858Z,65.00
2019-05-03T01:25:32.400Z,65.12
2019-05-03T01:28:01.445Z,65.11
2019-05-03T01:30:32.724Z,64.89
2019-05-03T01:33:02.944Z,65.54
2019-05-03T01:35:32.930Z,65.40
2019-05-03T01:38:02.949Z,66.10
2019-05-03T01:40:32.962Z,65.96
2019-05-03T01:43:03.011Z,66.92
2019-05-03T01:45:33.085Z,67.52
2019-05-03T01:48:05.040Z,67.00
2019-05-03T01:50:42.600Z,66.71
2019-05-03T01:53:26.157Z,65.74
2019-05-03T01:55:56.158Z,66.70
2019-05-03T01:58:26.533Z,64.78
2019-05-03T02:00:58.224Z,65.10
2019-05-03T02:03:32.829Z,66.01
2019-05-03T02:06:02.952Z,66.80
2019-05-03T02:08:33.070Z,66.29
2019-05-03T02:11:03.143Z,66.47
2019-05-03T02:13:33.133Z,66.75
2019-05-03T02:16:03.286Z,66.18
2019-05-03T02:18:33.381Z,67.74
2019-05-03T02:21:03.490Z,67.02
2019-05-03T02:23:33.626Z,66.17
2019-05-03T02:26:03.660Z,67.49
2019-05-03T02:28:33.658Z,66.82
2019-05-03T02:31:03.817Z,67.23
2019-05-03T02:33:33.788Z,67.26
2019-05-03T02:36:04.088Z,66.42
2019-05-03T02:38:34.100Z,67.01
2019-05-03T02:41:04.164Z,66.76
2019-05-03T02:43:36.535Z,67.38
2019-05-03T02:46:08.400Z,67.09
2019-05-03T02:48:55.778Z,66.84
2019-05-03T02:51:26.402Z,66.90
2019-05-03T02:53:57.313Z,67.88
2019-05-03T02:56:27.401Z,68.83
2019-05-03T02:58:57.503Z,68.78
2019-05-03T03:01:27.708Z,67.73
2019-05-03T03:03:58.430Z,67.16
2019-05-03T03:06:30.357Z,67.07
2019-05-03T03:09:00.487Z,68.02
2019-05-03T03:11:35.542Z,69.00
2019-05-03T03:14:07.626Z,68.86
2019-05-03T03:16:39.311Z,69.22
2019-05-03T03:19:11.455Z,68.18
2019-05-03T03:21:46.687Z,68.83
2019-05-03T03:24:20.017Z,67.40
2019-05-03T03:26:51.731Z,68.10
2019-05-03T03:29:25.404Z,67.76
2019-05-03T03:32:10.056Z,68.43
2019-05-03T03:34:56.706Z,68.70
2019-05-03T03:37:25.958Z,68.86
2019-05-03T03:39:56.332Z,69.64
2019-05-03T03:42:28.350Z,69.38
2019-05-03T03:44:58.961Z,68.85
2019-05-03T03:47:32.099Z,68.38
2019-05-03T03:50:05.871Z,67.95
2019-05-03T03:52:37.274Z,67.72
2019-05-03T03:55:08.108Z,67.80
2019-05-03T03:57:38.287Z,66.88
2019-05-03T04:00:09.810Z,67.78
2019-05-03T04:02:40.132Z,67.91
2019-05-03T04:05:10.397Z,67.72
2019-05-03T04:07:41.535Z,68.02
2019-05-03T04:10:12.172Z,67.45
2019-05-03T04:12:45.435Z,67.74
2019-05-03T04:15:17.316Z,67.53
2019-05-03T04:18:05.796Z,67.98
2019-05-03T04:20:37.696Z,68.35
2019-05-03T04:23:07.669Z,68.14
2019-05-03T04:25:37.754Z,68.59
2019-05-03T04:28:08.279Z,67.59
2019-05-03T04:30:38.294Z,67.76
2019-05-03T04:33:08.341Z,67.79
2019-05-03T04:35:38.289Z,68.41
2019-05-03T04:38:08.463Z,67.17
2019-05-03T04:40:38.449Z,66.43
2019-05-03T04:43:08.473Z,66.98
2019-05-03T04:45:38.510Z,66.41
2019-05-03T04:48:09.178Z,65.29
2019-05-03T04:50:39.194Z,65.42
2019-05-03T04:53:09.427Z,65.91
2019-05-03T04:55:39.404Z,65.93
2019-05-03T04:58:09.439Z,65.12
2019-05-03T05:00:39.423Z,64.51
2019-05-03T05:03:09.412Z,64.14
2019-05-03T05:05:39.394Z,64.09
2019-05-03T05:08:09.443Z,63.92
2019-05-03T05:10:39.418Z,64.69
2019-05-03T05:13:09.474Z,63.82
2019-05-03T05:15:39.529Z,63.40
2019-05-03T05:18:11.245Z,63.30
2019-05-03T05:20:45.643Z,63.22
2019-05-03T05:23:15.609Z,61.71
2019-05-03T05:25:47.255Z,62.06
2019-05-03T05:28:18.891Z,62.21
2019-05-03T05:30:49.233Z,60.24
2019-05-03T05:33:22.310Z,60.55
2019-05-03T05:35:54.530Z,60.79
2019-05-03T05:38:25.579Z,60.08
2019-05-03T05:40:55.763Z,58.65
2019-05-03T05:43:25.791Z,56.73
2019-05-03T05:45:58.788Z,55.63
2019-05-03T05:48:32.198Z,54.51
2019-05-03T05:51:04.318Z,55.29
2019-05-03T05:53:35.747Z,54.89
2019-05-03T05:56:19.312Z,52.26
2019-05-03T05:58:50.942Z,51.81
2019-05-03T06:01:31.350Z,53.69
2019-05-03T06:04:01.319Z,51.94
2019-05-03T06:06:49.597Z,52.25
2019-05-03T06:09:21.122Z,51.88
2019-05-03T06:11:55.501Z,49.69
2019-05-03T06:14:27.151Z,50.56
2019-05-03T06:17:01.249Z,50.16
2019-05-03T06:19:37.013Z,50.57
2019-05-03T06:22:15.352Z,49.38
2019-05-03T06:24:54.383Z,49.46
2019-05-03T06:27:27.224Z,48.62
2019-05-03T06:29:58.850Z,49.28
2019-05-03T06:32:30.476Z,48.19
2019-05-03T06:35:01.539Z,49.07
2019-05-03T06:37:35.637Z,49.49
2019-05-03T06:40:09.025Z,47.48
2019-05-03T06:42:51.635Z,46.84
2019-05-03T06:45:11.850Z,47.97
2019-05-03T06:47:46.022Z,47.25
2019-05-03T06:50:14.628Z,45.94
2019-05-03T06:52:44.735Z,47.28
2019-05-03T06:55:14.983Z,47.85
2019-05-03T06:57:49.558Z,47.15
2019-05-03T07:00:38.660Z,46.86
2019-05-03T07:03:25.272Z,45.92
2019-05-03T07:06:15.035Z,44.37
2019-05-03T07:08:47.261Z,43.76
2019-05-03T07:11:17.368Z,42.75
2019-05-03T07:13:47.362Z,42.61
2019-05-03T07:16:17.411Z,40.12
2019-05-03T07:18:47.406Z,40.80
2019-05-03T07:21:17.435Z,40.62
2019-05-03T07:23:47.491Z,39.43
2019-05-03T07:26:17.511Z,40.12
2019-05-03T07:28:50.033Z,40.31
2019-05-03T07:31:19.203Z,38.98
2019-05-03T07:33:49.275Z,39.28
2019-05-03T07:36:19.336Z,38.39
2019-05-03T07:38:49.330Z,39.94
2019-05-03T07:41:19.408Z,39.79
2019-05-03T07:43:49.405Z,39.71
2019-05-03T07:46:20.483Z,37.24
2019-05-03T07:48:50.583Z,38.37
2019-05-03T07:51:20.573Z,38.29
2019-05-03T07:53:50.588Z,37.76
2019-05-03T07:56:20.987Z,39.14
2019-05-03T07:59:00.119Z,37.25
2019-05-03T08:01:31.781Z,36.69
2019-05-03T08:04:01.769Z,37.71
2019-05-03T08:06:31.812Z,37.21
2019-05-03T08:09:01.789Z,35.73
2019-05-03T08:11:35.158Z,35.41
2019-05-03T08:14:06.604Z,37.21
2019-05-03T08:16:36.728Z,33.71
2019-05-03T08:19:06.738Z,35.14
2019-05-03T08:21:38.439Z,34.96
2019-05-03T08:24:08.536Z,34.45
2019-05-03T08:26:38.566Z,36.82
2019-05-03T08:29:15.979Z,33.78
2019-05-03T08:31:41.887Z,33.26
2019-05-03T08:34:15.349Z,34.26
2019-05-03T08:36:54.878Z,35.78
2019-05-03T08:39:26.489Z,36.17
2019-05-03T08:41:58.190Z,32.61
2019-05-03T08:44:28.322Z,33.96
2019-05-03T08:46:58.847Z,33.92
2019-05-03T08:49:28.984Z,35.28
2019-05-03T08:51:59.001Z,32.01
2019-05-03T08:54:28.991Z,31.66
2019-05-03T08:56:59.017Z,31.73
2019-05-03T08:59:32.511Z,31.83
2019-05-03T09:02:03.543Z,34.24
2019-05-03T09:04:37.355Z,32.37
2019-05-03T09:07:05.515Z,32.95
2019-05-03T09:09:43.416Z,29.80
2019-05-03T09:12:14.504Z,32.23
2019-05-03T09:14:48.397Z,31.33
2019-05-03T09:17:17.848Z,30.30
2019-05-03T09:19:47.874Z,30.82
2019-05-03T09:22:17.989Z,30.07
2019-05-03T09:24:47.983Z,31.34
2019-05-03T09:27:18.058Z,30.03
2019-05-03T09:29:48.056Z,27.05
2019-05-03T09:32:18.052Z,27.20
2019-05-03T09:34:48.090Z,28.83
2019-05-03T09:37:18.155Z,29.51
2019-05-03T09:39:48.184Z,28.94
2019-05-03T09:42:18.243Z,29.44
2019-05-03T09:44:48.238Z,31.12
2019-05-03T09:47:18.360Z,31.35
2019-05-03T09:49:48.355Z,29.71
2019-05-03T09:52:18.396Z,30.41
2019-05-03T09:54:54.744Z,28.96
2019-05-03T09:57:24.944Z,28.12
2019-05-03T09:59:59.654Z,29.45
2019-05-03T10:02:26.763Z,29.34
2019-05-03T10:04:57.832Z,28.33
2019-05-03T10:07:27.919Z,29.08
2019-05-03T10:09:57.910Z,30.45
2019-05-03T10:12:27.898Z,31.25
2019-05-03T10:14:57.969Z,28.84
2019-05-03T10:17:35.511Z,28.49
2019-05-03T10:20:08.216Z,30.27
2019-05-03T10:22:38.209Z,29.64
2019-05-03T10:25:08.516Z,28.03
2019-05-03T10:27:47.786Z,27.37
2019-05-03T10:30:21.569Z,27.69
2019-05-03T10:32:56.293Z,26.56
2019-05-03T10:35:26.323Z,24.32
2019-05-03T10:37:56.379Z,23.92
2019-05-03T10:40:27.412Z,27.97
2019-05-03T10:42:57.479Z,26.63
2019-05-03T10:45:28.161Z,28.24
2019-05-03T10:47:58.340Z,27.52
2019-05-03T10:50:28.317Z,27.92
2019-05-03T10:53:11.890Z,28.56
2019-05-03T10:55:45.109Z,26.74
2019-05-03T10:58:19.231Z,26.84
2019-05-03T11:00:53.346Z,27.00
2019-05-03T11:03:22.643Z,27.53
2019-05-03T11:05:54.784Z,27.60
2019-05-03T11:08:24.454Z,26.16
2019-05-03T11:10:54.896Z,27.24
2019-05-03T11:13:26.478Z,27.56
2019-05-03T11:15:56.579Z,27.05
2019-05-03T11:18:28.260Z,27.51
2019-05-03T11:20:58.242Z,27.83
2019-05-03T11:23:28.376Z,28.86
2019-05-03T11:25:58.402Z,29.23
2019-05-03T11:28:28.369Z,30.18
2019-05-03T11:31:02.468Z,29.95
2019-05-03T11:33:35.863Z,31.45
2019-05-03T11:36:22.743Z,30.83
2019-05-03T11:38:55.742Z,31.35
2019-05-03T11:41:32.535Z,32.27
2019-05-03T11:44:00.527Z,30.35
2019-05-03T11:46:30.616Z,30.98
2019-05-03T11:49:00.608Z,30.25
2019-05-03T11:51:31.621Z,29.21
2019-05-03T11:54:01.688Z,27.50
2019-05-03T11:56:31.687Z,28.28
2019-05-03T11:59:01.665Z,27.28
2019-05-03T12:01:35.568Z,28.31
2019-05-03T12:04:05.106Z,28.61
2019-05-03T12:06:36.807Z,28.25
2019-05-03T12:09:07.422Z,28.16
2019-05-03T12:11:39.542Z,28.58
2019-05-03T12:14:12.513Z,28.72
2019-05-03T12:17:17.535Z,27.13
2019-05-03T12:19:22.829Z,27.93
2019-05-03T12:21:50.749Z,28.31
2019-05-03T12:24:22.099Z,29.04
2019-05-03T12:26:52.378Z,27.97
2019-05-03T12:29:24.471Z,26.64
2019-05-03T12:31:54.819Z,26.57
2019-05-03T12:34:25.577Z,27.08
2019-05-03T12:36:55.756Z,27.72
2019-05-03T12:39:29.995Z,26.49
2019-05-03T12:41:57.547Z,24.99
2019-05-03T12:44:27.811Z,25.33
2019-05-03T12:46:57.923Z,25.90
2019-05-03T12:49:28.038Z,25.99
2019-05-03T12:51:58.073Z,23.32
2019-05-03T12:54:28.080Z,27.33
2019-05-03T12:56:58.170Z,24.88
2019-05-03T12:59:36.077Z,25.22
2019-05-03T13:02:15.524Z,27.10
2019-05-03T13:04:47.919Z,24.59
2019-05-03T13:07:28.495Z,24.16
2019-05-03T13:09:58.486Z,23.51
2019-05-03T13:12:29.818Z,25.97
2019-05-03T13:14:59.960Z,24.53
2019-05-03T13:17:39.066Z,26.11
2019-05-03T13:20:11.940Z,23.97
2019-05-03T13:22:42.221Z,22.90
2019-05-03T13:25:15.484Z,22.19
2019-05-03T13:27:48.800Z,24.46
2019-05-03T13:30:18.938Z,24.50
2019-05-03T13:32:48.961Z,26.01
2019-05-03T13:35:18.970Z,22.17
2019-05-03T13:37:48.977Z,23.60
2019-05-03T13:40:19.046Z,23.24
2019-05-03T13:42:57.136Z,24.79
2019-05-03T13:45:20.814Z,23.41
2019-05-03T13:47:50.758Z,23.24
2019-05-03T13:50:20.760Z,23.23
2019-05-03T13:52:50.756Z,24.45
2019-05-03T13:55:20.738Z,23.88
2019-05-03T13:57:50.781Z,25.18
2019-05-03T14:00:20.831Z,24.77
2019-05-03T14:02:50.943Z,24.81
2019-05-03T14:05:20.942Z,26.62
2019-05-03T14:07:50.999Z,26.34
2019-05-03T14:10:21.116Z,26.38
2019-05-03T14:12:51.139Z,25.57
2019-05-03T14:15:21.277Z,26.42
2019-05-03T14:17:51.299Z,26.52
2019-05-03T14:20:23.104Z,27.48
2019-05-03T14:22:53.094Z,27.42
2019-05-03T14:25:24.685Z,27.95
2019-05-03T14:27:55.118Z,29.40
2019-05-03T14:30:25.442Z,29.02
2019-05-03T14:32:55.764Z,29.04
2019-05-03T14:35:25.793Z,29.59
2019-05-03T14:37:55.765Z,31.16
2019-05-03T14:40:25.825Z,29.33
2019-05-03T14:42:55.890Z,30.08
2019-05-03T14:45:25.893Z,30.50
2019-05-03T14:47:57.735Z,30.88
2019-05-03T14:50:27.609Z,31.17
2019-05-03T14:52:57.590Z,32.06
2019-05-03T14:55:38.045Z,32.85
2019-05-03T14:58:25.930Z,34.81
2019-05-03T15:00:57.804Z,34.03
2019-05-03T15:03:30.925Z,34.93
2019-05-03T15:06:00.922Z,35.46
2019-05-03T15:08:30.997Z,35.51
2019-05-03T15:11:01.053Z,36.10
2019-05-03T15:13:32.157Z,33.70
2019-05-03T15:16:02.118Z,34.05
2019-05-03T15:18:32.204Z,33.82
2019-05-03T15:21:02.205Z,35.48
2019-05-03T15:23:32.268Z,35.57
2019-05-03T15:26:02.251Z,36.91
2019-05-03T15:28:32.229Z,37.29
2019-05-03T15:31:04.438Z,38.67
2019-05-03T15:33:35.318Z,38.79
2019-05-03T15:36:06.990Z,39.21
2019-05-03T15:38:37.043Z,39.18
2019-05-03T15:41:07.118Z,38.70
2019-05-03T15:43:38.730Z,38.59
2019-05-03T15:46:28.249Z,39.09
2019-05-03T15:48:59.880Z,39.70
2019-05-03T15:51:29.980Z,39.57
2019-05-03T15:53:59.959Z,38.85
2019-05-03T15:56:29.933Z,38.73
2019-05-03T15:58:59.919Z,39.67
2019-05-03T16:01:29.907Z,38.66
2019-05-03T16:03:59.880Z,39.35
2019-05-03T16:06:29.868Z,38.49
2019-05-03T16:08:59.934Z,38.01
2019-05-03T16:11:29.990Z,38.52
2019-05-03T16:14:00.070Z,38.20
2019-05-03T16:16:30.063Z,38.65
2019-05-03T16:19:00.088Z,37.93
2019-05-03T16:21:31.289Z,37.86
2019-05-03T16:24:01.319Z,38.88
2019-05-03T16:26:31.372Z,37.91
2019-05-03T16:29:08.998Z,37.28
2019-05-03T16:31:38.975Z,37.30
2019-05-03T16:34:08.993Z,37.76
2019-05-03T16:36:38.964Z,37.22
2019-05-03T16:39:09.028Z,37.26
2019-05-03T16:41:40.597Z,36.78
2019-05-03T16:44:10.709Z,38.15
2019-05-03T16:46:41.945Z,38.31
2019-05-03T16:49:11.932Z,37.95
2019-05-03T16:51:44.291Z,37.96
2019-05-03T16:54:14.625Z,38.43
2019-05-03T16:56:46.119Z,39.01
2019-05-03T16:59:17.412Z,39.69
2019-05-03T17:01:47.561Z,39.70
2019-05-03T17:04:21.845Z,39.38
2019-05-03T17:06:59.442Z,39.08
2019-05-03T17:09:49.319Z,39.53
2019-05-03T17:12:25.908Z,39.30
2019-05-03T17:14:57.056Z,40.20
2019-05-03T17:17:27.356Z,40.40
2019-05-03T17:19:57.423Z,40.21
2019-05-03T17:22:27.566Z,39.70
2019-05-03T17:24:57.636Z,40.37
2019-05-03T17:27:27.611Z,39.65
2019-05-03T17:29:57.673Z,39.99
2019-05-03T17:32:27.735Z,40.71
2019-05-03T17:34:57.755Z,40.73
2019-05-03T17:37:27.734Z,40.21
2019-05-03T17:40:17.941Z,40.64
2019-05-03T17:42:58.739Z,40.74
2019-05-03T17:45:38.064Z,41.72
2019-05-03T17:48:07.691Z,40.86
2019-05-03T17:50:37.693Z,44.55
2019-05-03T17:53:25.798Z,43.81
2019-05-03T17:56:04.677Z,44.06
2019-05-03T17:58:52.585Z,44.45
2019-05-03T18:01:29.991Z,45.58
2019-05-03T18:04:08.314Z,46.04
2019-05-03T18:06:38.005Z,46.14
2019-05-03T18:09:10.812Z,45.79
2019-05-03T18:11:45.571Z,45.89
2019-05-03T18:14:15.589Z,46.20
2019-05-03T18:16:45.560Z,45.65
2019-05-03T18:19:15.669Z,45.17
2019-05-03T18:21:45.654Z,45.82
2019-05-03T18:24:15.655Z,44.61
2019-05-03T18:26:45.783Z,44.65
2019-05-03T18:29:15.827Z,44.81
2019-05-03T18:31:45.773Z,44.50
2019-05-03T18:34:19.965Z,43.93
2019-05-03T18:36:47.430Z,45.56
2019-05-03T18:39:17.412Z,50.53
2019-05-03T18:41:47.406Z,57.14
2019-05-03T18:44:27.719Z,57.06
2019-05-03T18:47:02.013Z,60.68
2019-05-03T18:49:32.083Z,61.17
2019-05-03T18:52:02.173Z,58.10
2019-05-03T18:54:32.234Z,59.96
2019-05-03T18:57:02.229Z,62.96
2019-05-03T18:59:32.296Z,63.06
2019-05-03T19:02:02.506Z,62.31
2019-05-03T19:04:37.887Z,66.26
2019-05-03T19:07:09.721Z,62.40
2019-05-03T19:09:41.353Z,63.10
2019-05-03T19:12:18.820Z,62.59
2019-05-03T19:14:48.935Z,66.25
2019-05-03T19:17:30.890Z,64.51
2019-05-03T19:20:01.533Z,65.59
2019-05-03T19:22:34.395Z,64.95
2019-05-03T19:25:06.726Z,65.95
2019-05-03T19:27:36.687Z,66.87
2019-05-03T19:30:08.023Z,65.77
2019-05-03T19:32:38.022Z,67.36
2019-05-03T19:35:09.549Z,67.74
2019-05-03T19:37:39.659Z,68.26
2019-05-03T19:40:10.964Z,68.73
2019-05-03T19:42:40.989Z,69.56
2019-05-03T19:45:11.375Z,69.61
2019-05-03T19:47:41.381Z,70.15
2019-05-03T19:50:11.542Z,68.63
2019-05-03T19:52:59.550Z,69.44
2019-05-03T19:55:29.656Z,68.34
2019-05-03T19:57:59.710Z,70.46
2019-05-03T20:00:32.420Z,70.36
2019-05-03T20:03:04.951Z,68.30
2019-05-03T20:05:37.770Z,66.80
2019-05-03T20:08:12.284Z,67.70
2019-05-03T20:10:42.540Z,66.30
2019-05-03T20:13:12.603Z,65.53
2019-05-03T20:15:44.928Z,64.39
2019-05-03T20:18:15.251Z,64.13
2019-05-03T20:20:46.363Z,63.79
2019-05-03T20:23:16.360Z,63.67
2019-05-03T20:25:46.465Z,64.06
2019-05-03T20:28:16.449Z,63.54
2019-05-03T20:30:46.487Z,63.77
2019-05-03T20:33:16.481Z,63.39
2019-05-03T20:35:46.602Z,62.68
2019-05-03T20:38:16.554Z,63.83
2019-05-03T20:40:46.636Z,63.59
2019-05-03T20:43:18.345Z,63.63
2019-05-03T20:45:54.753Z,63.35
2019-05-03T20:48:25.116Z,63.41
2019-05-03T20:50:55.225Z,64.17
2019-05-03T20:53:25.246Z,63.66
2019-05-03T20:55:56.292Z,64.46
2019-05-03T20:58:26.287Z,64.11
2019-05-03T21:00:56.242Z,64.37
2019-05-03T21:03:26.214Z,64.27
2019-05-03T21:05:56.201Z,64.77
2019-05-03T21:08:26.170Z,65.19
2019-05-03T21:10:56.367Z,64.86
2019-05-03T21:13:38.614Z,63.89
2019-05-03T21:16:15.268Z,63.13
2019-05-03T21:18:46.866Z,62.52
2019-05-03T21:21:18.514Z,61.35
2019-05-03T21:24:02.431Z,60.79
2019-05-03T21:26:34.493Z,59.99
2019-05-03T21:29:04.724Z,60.41
2019-05-03T21:31:35.701Z,59.09
2019-05-03T21:34:05.789Z,59.88
2019-05-03T21:36:35.909Z,59.09
2019-05-03T21:39:06.933Z,58.51
2019-05-03T21:41:38.127Z,59.41
2019-05-03T21:44:11.104Z,59.46
2019-05-03T21:46:44.913Z,59.85
2019-05-03T21:49:21.606Z,59.41
2019-05-03T21:51:53.608Z,60.33
2019-05-03T21:54:24.612Z,59.89
2019-05-03T21:56:56.542Z,60.38
2019-05-03T21:59:26.704Z,60.02
2019-05-03T22:01:56.790Z,61.08
2019-05-03T22:04:26.849Z,61.35
2019-05-03T22:06:56.840Z,62.38
2019-05-03T22:09:26.963Z,62.23
2019-05-03T22:11:56.962Z,64.05
2019-05-03T22:14:28.643Z,63.79
2019-05-03T22:17:05.905Z,63.55
2019-05-03T22:19:35.953Z,64.37
2019-05-03T22:22:25.415Z,64.14
2019-05-03T22:24:57.323Z,64.30
2019-05-03T22:27:28.959Z,64.91
2019-05-03T22:29:58.958Z,64.82
2019-05-03T22:32:29.004Z,65.05
2019-05-03T22:34:58.985Z,64.44
2019-05-03T22:37:28.973Z,65.64
2019-05-03T22:39:59.006Z,65.91
2019-05-03T22:42:28.987Z,65.75
2019-05-03T22:44:58.973Z,66.23
2019-05-03T22:47:29.035Z,66.28
2019-05-03T22:49:59.109Z,65.56
2019-05-03T22:52:29.084Z,65.91
2019-05-03T22:54:59.081Z,65.84
2019-05-03T22:57:29.046Z,65.47
2019-05-03T22:59:59.147Z,67.55
2019-05-03T23:02:29.237Z,67.39
2019-05-03T23:04:59.279Z,66.53
2019-05-03T23:07:29.365Z,66.42
2019-05-03T23:09:59.385Z,66.58
2019-05-03T23:12:29.376Z,66.82
2019-05-03T23:14:59.441Z,67.10
2019-05-03T23:17:29.426Z,67.47
2019-05-03T23:20:01.051Z,68.35
2019-05-03T23:22:32.369Z,67.82
2019-05-03T23:25:02.414Z,67.69
2019-05-03T23:27:32.438Z,67.03
2019-05-03T23:30:02.663Z,66.91
2019-05-03T23:32:34.928Z,67.87
2019-05-03T23:35:06.283Z,67.65
2019-05-03T23:37:36.406Z,66.96
2019-05-03T23:40:07.509Z,67.40
2019-05-03T23:42:37.517Z,66.71
2019-05-03T23:45:07.711Z,66.92
2019-05-03T23:47:45.294Z,67.43
2019-05-03T23:50:19.786Z,67.22
2019-05-03T23:52:49.852Z,67.84
2019-05-03T23:55:34.596Z,68.11
2019-05-03T23:58:04.980Z,68.57
